Appleton, Minnesota
Current Conditions -  °F | °C
As of 4:34 AM on Thursday 23 Oct 2014 (Local Time) from KAQP Reporting Station
Haze Haze  
Wind Chill: 46°   Ceiling: Unl
Heat Index: 46°   Visibility: 1mi
Dew Point: 45°   Wind: 3mph
Humidity: 93%   Direction: 180°S
Pressure: 29.95"   Gusts: NA
Location:  45.2°N, 96.02°W
Report Text: KAQP 230934Z AUTO 18003KT 1SM BR CLR 08/07 A2995 RMK AO2
Loading
Personal Weather Stations






























Interactive Weather Map New forecast layout! Learn more

10-Day Weather Forecast

Advertisements
Track Severe Weather on mobile